sensor_id;sensor_type;location;lat;lon;timestamp;P1;durP1;ratioP1;P2;durP2;ratioP2
18661;SDS011;61528;49.456;11.098;2022-11-15T00:00:17;6.83;;;5.67;;
18661;SDS011;61528;49.456;11.098;2022-11-15T00:02:43;8.70;;;6.23;;
18661;SDS011;61528;49.456;11.098;2022-11-15T00:05:09;7.17;;;5.80;;
18661;SDS011;61528;49.456;11.098;2022-11-15T00:07:34;6.43;;;5.67;;
18661;SDS011;61528;49.456;11.098;2022-11-15T00:10:00;8.40;;;5.83;;
18661;SDS011;61528;49.456;11.098;2022-11-15T00:12:29;7.27;;;5.80;;
18661;SDS011;61528;49.456;11.098;2022-11-15T00:14:55;7.73;;;6.27;;
18661;SDS011;61528;49.456;11.098;2022-11-15T00:17:21;7.70;;;6.30;;
18661;SDS011;61528;49.456;11.098;2022-11-15T00:19:47;8.60;;;5.70;;
18661;SDS011;61528;49.456;11.098;2022-11-15T00:22:13;7.53;;;5.93;;
18661;SDS011;61528;49.456;11.098;2022-11-15T00:24:38;7.17;;;6.10;;
18661;SDS011;61528;49.456;11.098;2022-11-15T00:27:04;6.30;;;5.70;;
18661;SDS011;61528;49.456;11.098;2022-11-15T00:29:30;7.83;;;6.10;;
18661;SDS011;61528;49.456;11.098;2022-11-15T00:31:56;7.30;;;6.00;;
18661;SDS011;61528;49.456;11.098;2022-11-15T00:34:22;7.10;;;6.07;;
18661;SDS011;61528;49.456;11.098;2022-11-15T00:36:47;7.77;;;6.20;;
18661;SDS011;61528;49.456;11.098;2022-11-15T00:39:13;7.60;;;6.30;;
18661;SDS011;61528;49.456;11.098;2022-11-15T00:41:39;8.43;;;6.10;;
18661;SDS011;61528;49.456;11.098;2022-11-15T00:44:05;7.13;;;6.07;;
18661;SDS011;61528;49.456;11.098;2022-11-15T00:46:31;6.73;;;5.83;;
18661;SDS011;61528;49.456;11.098;2022-11-15T00:48:56;8.40;;;6.30;;
18661;SDS011;61528;49.456;11.098;2022-11-15T00:51:22;8.53;;;6.63;;
18661;SDS011;61528;49.456;11.098;2022-11-15T00:53:48;8.03;;;6.23;;
18661;SDS011;61528;49.456;11.098;2022-11-15T00:56:14;7.03;;;5.83;;
18661;SDS011;61528;49.456;11.098;2022-11-15T00:58:39;6.80;;;5.93;;
18661;SDS011;61528;49.456;11.098;2022-11-15T01:01:09;8.40;;;6.07;;
18661;SDS011;61528;49.456;11.098;2022-11-15T01:03:37;8.60;;;5.80;;
18661;SDS011;61528;49.456;11.098;2022-11-15T01:06:04;7.33;;;6.23;;
18661;SDS011;61528;49.456;11.098;2022-11-15T01:08:31;6.97;;;6.10;;
18661;SDS011;61528;49.456;11.098;2022-11-15T01:11:00;7.27;;;5.80;;
18661;SDS011;61528;49.456;11.098;2022-11-15T01:13:29;6.90;;;5.77;;
18661;SDS011;61528;49.456;11.098;2022-11-15T01:15:59;7.13;;;5.30;;
18661;SDS011;61528;49.456;11.098;2022-11-15T01:18:36;7.67;;;6.00;;
18661;SDS011;61528;49.456;11.098;2022-11-15T01:21:06;6.60;;;5.40;;
18661;SDS011;61528;49.456;11.098;2022-11-15T01:23:33;9.10;;;6.17;;
18661;SDS011;61528;49.456;11.098;2022-11-15T01:26:00;6.43;;;5.73;;
18661;SDS011;61528;49.456;11.098;2022-11-15T01:28:34;7.57;;;5.90;;
18661;SDS011;61528;49.456;11.098;2022-11-15T01:31:02;7.27;;;5.80;;
18661;SDS011;61528;49.456;11.098;2022-11-15T01:33:30;7.33;;;6.00;;
18661;SDS011;61528;49.456;11.098;2022-11-15T01:35:56;6.37;;;5.50;;
18661;SDS011;61528;49.456;11.098;2022-11-15T01:38:22;6.93;;;6.03;;
18661;SDS011;61528;49.456;11.098;2022-11-15T01:40:48;6.70;;;5.77;;
18661;SDS011;61528;49.456;11.098;2022-11-15T01:43:30;8.70;;;5.80;;
18661;SDS011;61528;49.456;11.098;2022-11-15T01:46:06;7.03;;;5.70;;
18661;SDS011;61528;49.456;11.098;2022-11-15T01:48:47;6.87;;;5.90;;
18661;SDS011;61528;49.456;11.098;2022-11-15T01:51:15;7.03;;;5.67;;
18661;SDS011;61528;49.456;11.098;2022-11-15T01:53:44;6.73;;;5.67;;
18661;SDS011;61528;49.456;11.098;2022-11-15T01:56:13;6.27;;;5.67;;
18661;SDS011;61528;49.456;11.098;2022-11-15T01:58:48;6.73;;;5.53;;
18661;SDS011;61528;49.456;11.098;2022-11-15T02:01:16;7.67;;;5.30;;
18661;SDS011;61528;49.456;11.098;2022-11-15T02:06:34;6.40;;;5.17;;
18661;SDS011;61528;49.456;11.098;2022-11-15T02:09:01;6.00;;;5.40;;
18661;SDS011;61528;49.456;11.098;2022-11-15T02:11:28;8.43;;;5.37;;
18661;SDS011;61528;49.456;11.098;2022-11-15T02:13:54;7.80;;;5.40;;
18661;SDS011;61528;49.456;11.098;2022-11-15T02:16:35;7.23;;;4.93;;
18661;SDS011;61528;49.456;11.098;2022-11-15T02:32:21;7.57;;;5.97;;
18661;SDS011;61528;49.456;11.098;2022-11-15T02:34:55;6.33;;;5.60;;
18661;SDS011;61528;49.456;11.098;2022-11-15T02:40:07;8.60;;;5.53;;
18661;SDS011;61528;49.456;11.098;2022-11-15T02:42:40;8.40;;;5.93;;
18661;SDS011;61528;49.456;11.098;2022-11-15T02:45:28;7.77;;;5.73;;
18661;SDS011;61528;49.456;11.098;2022-11-15T02:47:55;8.90;;;5.80;;
18661;SDS011;61528;49.456;11.098;2022-11-15T02:50:24;7.37;;;5.67;;
18661;SDS011;61528;49.456;11.098;2022-11-15T02:52:51;8.67;;;5.17;;
18661;SDS011;61528;49.456;11.098;2022-11-15T02:55:27;11.03;;;6.03;;
18661;SDS011;61528;49.456;11.098;2022-11-15T03:00:42;9.03;;;5.67;;
18661;SDS011;61528;49.456;11.098;2022-11-15T03:03:24;7.37;;;5.70;;
18661;SDS011;61528;49.456;11.098;2022-11-15T03:06:02;6.67;;;5.87;;
18661;SDS011;61528;49.456;11.098;2022-11-15T03:11:09;5.97;;;5.00;;
18661;SDS011;61528;49.456;11.098;2022-11-15T03:18:55;6.73;;;5.13;;
18661;SDS011;61528;49.456;11.098;2022-11-15T03:21:25;7.10;;;5.67;;
18661;SDS011;61528;49.456;11.098;2022-11-15T03:23:53;7.73;;;5.57;;
18661;SDS011;61528;49.456;11.098;2022-11-15T03:26:21;8.00;;;5.90;;
18661;SDS011;61528;49.456;11.098;2022-11-15T03:29:00;7.13;;;5.77;;
18661;SDS011;61528;49.456;11.098;2022-11-15T03:31:27;8.33;;;5.43;;
18661;SDS011;61528;49.456;11.098;2022-11-15T03:36:57;6.57;;;5.13;;
18661;SDS011;61528;49.456;11.098;2022-11-15T03:39:23;9.20;;;5.57;;
18661;SDS011;61528;49.456;11.098;2022-11-15T03:41:56;7.60;;;5.57;;
18661;SDS011;61528;49.456;11.098;2022-11-15T03:44:40;7.17;;;6.17;;
18661;SDS011;61528;49.456;11.098;2022-11-15T03:49:50;6.10;;;5.23;;
18661;SDS011;61528;49.456;11.098;2022-11-15T03:52:17;8.77;;;5.70;;
18661;SDS011;61528;49.456;11.098;2022-11-15T03:54:48;8.47;;;5.43;;
18661;SDS011;61528;49.456;11.098;2022-11-15T03:57:14;6.67;;;5.10;;
18661;SDS011;61528;49.456;11.098;2022-11-15T03:59:41;7.67;;;5.50;;
18661;SDS011;61528;49.456;11.098;2022-11-15T04:02:07;7.20;;;5.03;;
18661;SDS011;61528;49.456;11.098;2022-11-15T04:04:33;8.00;;;5.43;;
18661;SDS011;61528;49.456;11.098;2022-11-15T04:06:59;6.90;;;5.63;;
18661;SDS011;61528;49.456;11.098;2022-11-15T04:09:25;6.73;;;5.47;;
18661;SDS011;61528;49.456;11.098;2022-11-15T04:11:51;6.40;;;5.27;;
18661;SDS011;61528;49.456;11.098;2022-11-15T04:14:17;7.53;;;5.67;;
18661;SDS011;61528;49.456;11.098;2022-11-15T04:16:43;6.17;;;5.47;;
18661;SDS011;61528;49.456;11.098;2022-11-15T04:19:10;7.43;;;5.40;;
18661;SDS011;61528;49.456;11.098;2022-11-15T04:21:55;6.07;;;5.30;;
18661;SDS011;61528;49.456;11.098;2022-11-15T04:24:40;5.63;;;5.03;;
18661;SDS011;61528;49.456;11.098;2022-11-15T04:27:06;6.57;;;5.30;;
18661;SDS011;61528;49.456;11.098;2022-11-15T04:29:32;9.00;;;5.73;;
18661;SDS011;61528;49.456;11.098;2022-11-15T04:32:02;7.87;;;5.10;;
18661;SDS011;61528;49.456;11.098;2022-11-15T04:34:29;8.10;;;5.57;;
18661;SDS011;61528;49.456;11.098;2022-11-15T04:36:55;8.47;;;5.20;;
18661;SDS011;61528;49.456;11.098;2022-11-15T04:39:37;7.87;;;5.30;;
18661;SDS011;61528;49.456;11.098;2022-11-15T04:42:03;6.77;;;5.13;;
18661;SDS011;61528;49.456;11.098;2022-11-15T04:44:29;5.57;;;4.90;;
18661;SDS011;61528;49.456;11.098;2022-11-15T04:46:56;6.53;;;5.10;;
18661;SDS011;61528;49.456;11.098;2022-11-15T04:49:22;6.83;;;5.30;;
18661;SDS011;61528;49.456;11.098;2022-11-15T04:51:48;7.57;;;5.10;;
18661;SDS011;61528;49.456;11.098;2022-11-15T04:54:14;7.23;;;5.33;;
18661;SDS011;61528;49.456;11.098;2022-11-15T04:56:40;7.50;;;5.50;;
18661;SDS011;61528;49.456;11.098;2022-11-15T04:59:07;7.93;;;5.47;;
18661;SDS011;61528;49.456;11.098;2022-11-15T05:01:33;7.50;;;5.27;;
18661;SDS011;61528;49.456;11.098;2022-11-15T05:03:59;7.33;;;5.60;;
18661;SDS011;61528;49.456;11.098;2022-11-15T05:06:44;7.30;;;5.70;;
18661;SDS011;61528;49.456;11.098;2022-11-15T05:09:10;6.47;;;4.93;;
18661;SDS011;61528;49.456;11.098;2022-11-15T05:11:38;7.17;;;4.97;;
18661;SDS011;61528;49.456;11.098;2022-11-15T05:14:04;6.13;;;5.27;;
18661;SDS011;61528;49.456;11.098;2022-11-15T05:16:30;6.80;;;5.27;;
18661;SDS011;61528;49.456;11.098;2022-11-15T05:18:57;5.70;;;4.87;;
18661;SDS011;61528;49.456;11.098;2022-11-15T05:21:23;6.80;;;5.10;;
18661;SDS011;61528;49.456;11.098;2022-11-15T05:23:49;7.80;;;5.57;;
18661;SDS011;61528;49.456;11.098;2022-11-15T05:26:16;8.30;;;5.80;;
18661;SDS011;61528;49.456;11.098;2022-11-15T05:28:43;11.30;;;5.90;;
18661;SDS011;61528;49.456;11.098;2022-11-15T05:31:10;7.53;;;6.00;;
18661;SDS011;61528;49.456;11.098;2022-11-15T05:33:40;9.00;;;6.37;;
18661;SDS011;61528;49.456;11.098;2022-11-15T05:36:12;7.20;;;5.80;;
18661;SDS011;61528;49.456;11.098;2022-11-15T05:38:39;7.20;;;5.23;;
18661;SDS011;61528;49.456;11.098;2022-11-15T05:41:05;6.07;;;4.93;;
18661;SDS011;61528;49.456;11.098;2022-11-15T05:43:32;7.80;;;5.60;;
18661;SDS011;61528;49.456;11.098;2022-11-15T05:46:00;7.73;;;5.47;;
18661;SDS011;61528;49.456;11.098;2022-11-15T05:48:27;8.53;;;5.37;;
18661;SDS011;61528;49.456;11.098;2022-11-15T05:50:53;9.50;;;5.93;;
18661;SDS011;61528;49.456;11.098;2022-11-15T05:53:19;7.97;;;5.97;;
18661;SDS011;61528;49.456;11.098;2022-11-15T05:55:47;10.93;;;6.03;;
18661;SDS011;61528;49.456;11.098;2022-11-15T05:58:13;8.77;;;5.77;;
18661;SDS011;61528;49.456;11.098;2022-11-15T06:00:39;7.93;;;5.83;;
18661;SDS011;61528;49.456;11.098;2022-11-15T06:03:08;7.93;;;5.73;;
18661;SDS011;61528;49.456;11.098;2022-11-15T06:05:34;9.33;;;6.00;;
18661;SDS011;61528;49.456;11.098;2022-11-15T06:08:00;8.63;;;6.10;;
18661;SDS011;61528;49.456;11.098;2022-11-15T06:10:27;8.33;;;6.30;;
18661;SDS011;61528;49.456;11.098;2022-11-15T06:12:56;7.33;;;5.73;;
18661;SDS011;61528;49.456;11.098;2022-11-15T06:15:23;10.77;;;6.33;;
18661;SDS011;61528;49.456;11.098;2022-11-15T06:17:49;8.83;;;6.70;;
18661;SDS011;61528;49.456;11.098;2022-11-15T06:20:15;12.83;;;7.53;;
18661;SDS011;61528;49.456;11.098;2022-11-15T06:22:43;11.60;;;7.63;;
18661;SDS011;61528;49.456;11.098;2022-11-15T06:25:10;14.40;;;7.20;;
18661;SDS011;61528;49.456;11.098;2022-11-15T06:27:37;12.63;;;7.57;;
18661;SDS011;61528;49.456;11.098;2022-11-15T06:30:03;11.30;;;6.63;;
18661;SDS011;61528;49.456;11.098;2022-11-15T06:32:30;10.60;;;6.83;;
18661;SDS011;61528;49.456;11.098;2022-11-15T06:34:56;10.93;;;6.77;;
18661;SDS011;61528;49.456;11.098;2022-11-15T06:37:22;10.87;;;7.00;;
18661;SDS011;61528;49.456;11.098;2022-11-15T06:39:48;12.90;;;7.67;;
18661;SDS011;61528;49.456;11.098;2022-11-15T06:42:15;11.63;;;6.80;;
18661;SDS011;61528;49.456;11.098;2022-11-15T06:44:41;10.77;;;6.33;;
18661;SDS011;61528;49.456;11.098;2022-11-15T06:47:07;14.97;;;7.43;;
18661;SDS011;61528;49.456;11.098;2022-11-15T06:49:33;13.57;;;7.30;;
18661;SDS011;61528;49.456;11.098;2022-11-15T06:51:59;11.97;;;6.83;;
18661;SDS011;61528;49.456;11.098;2022-11-15T06:54:25;10.23;;;6.87;;
18661;SDS011;61528;49.456;11.098;2022-11-15T06:56:51;10.83;;;6.93;;
18661;SDS011;61528;49.456;11.098;2022-11-15T06:59:17;9.13;;;6.20;;
18661;SDS011;61528;49.456;11.098;2022-11-15T07:01:43;10.40;;;7.17;;
18661;SDS011;61528;49.456;11.098;2022-11-15T07:04:09;9.90;;;6.97;;
18661;SDS011;61528;49.456;11.098;2022-11-15T07:06:36;9.93;;;7.40;;
18661;SDS011;61528;49.456;11.098;2022-11-15T07:09:02;10.53;;;6.57;;
18661;SDS011;61528;49.456;11.098;2022-11-15T07:11:28;11.83;;;7.30;;
18661;SDS011;61528;49.456;11.098;2022-11-15T07:13:54;12.07;;;7.60;;
18661;SDS011;61528;49.456;11.098;2022-11-15T07:16:22;13.17;;;7.40;;
18661;SDS011;61528;49.456;11.098;2022-11-15T07:18:48;12.47;;;7.27;;
18661;SDS011;61528;49.456;11.098;2022-11-15T07:21:14;13.13;;;7.10;;
18661;SDS011;61528;49.456;11.098;2022-11-15T07:23:40;12.10;;;7.63;;
18661;SDS011;61528;49.456;11.098;2022-11-15T07:26:06;13.00;;;7.57;;
18661;SDS011;61528;49.456;11.098;2022-11-15T07:28:33;13.67;;;7.17;;
18661;SDS011;61528;49.456;11.098;2022-11-15T07:31:02;9.73;;;6.67;;
18661;SDS011;61528;49.456;11.098;2022-11-15T07:33:28;11.70;;;7.20;;
18661;SDS011;61528;49.456;11.098;2022-11-15T07:35:57;9.57;;;7.10;;
18661;SDS011;61528;49.456;11.098;2022-11-15T07:38:24;10.87;;;7.07;;
18661;SDS011;61528;49.456;11.098;2022-11-15T07:40:55;13.83;;;7.23;;
18661;SDS011;61528;49.456;11.098;2022-11-15T07:43:22;11.50;;;6.63;;
18661;SDS011;61528;49.456;11.098;2022-11-15T07:45:48;8.80;;;6.37;;
18661;SDS011;61528;49.456;11.098;2022-11-15T07:48:14;9.03;;;6.00;;
18661;SDS011;61528;49.456;11.098;2022-11-15T07:50:41;8.67;;;6.33;;
18661;SDS011;61528;49.456;11.098;2022-11-15T07:53:07;9.97;;;6.50;;
18661;SDS011;61528;49.456;11.098;2022-11-15T07:55:34;12.83;;;6.33;;
18661;SDS011;61528;49.456;11.098;2022-11-15T07:58:04;8.60;;;6.33;;
18661;SDS011;61528;49.456;11.098;2022-11-15T08:00:30;12.40;;;6.23;;
18661;SDS011;61528;49.456;11.098;2022-11-15T08:03:10;8.93;;;5.97;;
18661;SDS011;61528;49.456;11.098;2022-11-15T08:05:37;7.47;;;5.97;;
18661;SDS011;61528;49.456;11.098;2022-11-15T08:08:04;10.57;;;6.27;;
18661;SDS011;61528;49.456;11.098;2022-11-15T08:10:30;9.00;;;6.23;;
18661;SDS011;61528;49.456;11.098;2022-11-15T08:12:57;7.67;;;5.50;;
18661;SDS011;61528;49.456;11.098;2022-11-15T08:15:24;8.13;;;5.50;;
18661;SDS011;61528;49.456;11.098;2022-11-15T08:17:53;9.20;;;5.57;;
18661;SDS011;61528;49.456;11.098;2022-11-15T08:20:19;8.83;;;5.63;;
18661;SDS011;61528;49.456;11.098;2022-11-15T08:22:45;8.83;;;5.00;;
18661;SDS011;61528;49.456;11.098;2022-11-15T08:25:12;8.90;;;4.53;;
18661;SDS011;61528;49.456;11.098;2022-11-15T08:27:39;5.97;;;4.77;;
18661;SDS011;61528;49.456;11.098;2022-11-15T08:30:06;7.83;;;4.30;;
18661;SDS011;61528;49.456;11.098;2022-11-15T08:32:32;5.80;;;4.33;;
18661;SDS011;61528;49.456;11.098;2022-11-15T08:34:58;6.23;;;4.77;;
18661;SDS011;61528;49.456;11.098;2022-11-15T08:37:25;5.67;;;4.50;;
18661;SDS011;61528;49.456;11.098;2022-11-15T08:39:51;7.03;;;4.30;;
18661;SDS011;61528;49.456;11.098;2022-11-15T08:42:17;5.70;;;4.53;;
18661;SDS011;61528;49.456;11.098;2022-11-15T08:44:43;7.23;;;4.70;;
18661;SDS011;61528;49.456;11.098;2022-11-15T08:47:10;5.30;;;4.17;;
18661;SDS011;61528;49.456;11.098;2022-11-15T08:49:37;4.80;;;3.97;;
18661;SDS011;61528;49.456;11.098;2022-11-15T08:52:03;5.70;;;4.50;;
18661;SDS011;61528;49.456;11.098;2022-11-15T08:54:30;4.93;;;3.90;;
18661;SDS011;61528;49.456;11.098;2022-11-15T08:56:56;4.90;;;4.10;;
18661;SDS011;61528;49.456;11.098;2022-11-15T08:59:23;5.10;;;3.83;;
18661;SDS011;61528;49.456;11.098;2022-11-15T09:01:49;5.07;;;3.63;;
18661;SDS011;61528;49.456;11.098;2022-11-15T09:04:15;5.43;;;4.40;;
18661;SDS011;61528;49.456;11.098;2022-11-15T09:06:42;4.20;;;3.80;;
18661;SDS011;61528;49.456;11.098;2022-11-15T09:09:08;6.13;;;3.93;;
18661;SDS011;61528;49.456;11.098;2022-11-15T09:11:34;5.23;;;3.87;;
18661;SDS011;61528;49.456;11.098;2022-11-15T09:14:00;6.13;;;4.23;;
18661;SDS011;61528;49.456;11.098;2022-11-15T09:16:27;4.67;;;3.70;;
18661;SDS011;61528;49.456;11.098;2022-11-15T09:18:53;6.03;;;3.63;;
18661;SDS011;61528;49.456;11.098;2022-11-15T09:21:19;4.00;;;3.53;;
18661;SDS011;61528;49.456;11.098;2022-11-15T09:23:46;4.07;;;3.67;;
18661;SDS011;61528;49.456;11.098;2022-11-15T09:26:14;5.83;;;4.73;;
18661;SDS011;61528;49.456;11.098;2022-11-15T09:28:40;4.33;;;3.77;;
18661;SDS011;61528;49.456;11.098;2022-11-15T09:31:07;5.20;;;4.07;;
18661;SDS011;61528;49.456;11.098;2022-11-15T09:33:33;4.57;;;3.13;;
18661;SDS011;61528;49.456;11.098;2022-11-15T09:36:04;3.93;;;3.30;;
18661;SDS011;61528;49.456;11.098;2022-11-15T09:38:30;5.27;;;3.30;;
18661;SDS011;61528;49.456;11.098;2022-11-15T09:43:47;3.50;;;3.00;;
18661;SDS011;61528;49.456;11.098;2022-11-15T09:49:02;5.83;;;3.60;;
18661;SDS011;61528;49.456;11.098;2022-11-15T09:56:40;3.93;;;2.90;;
18661;SDS011;61528;49.456;11.098;2022-11-15T09:59:22;3.43;;;3.13;;
18661;SDS011;61528;49.456;11.098;2022-11-15T10:04:36;3.70;;;3.00;;
18661;SDS011;61528;49.456;11.098;2022-11-15T10:10:00;3.70;;;2.77;;
18661;SDS011;61528;49.456;11.098;2022-11-15T10:12:30;4.17;;;2.97;;
18661;SDS011;61528;49.456;11.098;2022-11-15T10:15:04;5.67;;;2.70;;
18661;SDS011;61528;49.456;11.098;2022-11-15T10:22:40;4.97;;;2.70;;
18661;SDS011;61528;49.456;11.098;2022-11-15T10:25:12;4.13;;;2.77;;
18661;SDS011;61528;49.456;11.098;2022-11-15T10:27:41;2.90;;;2.60;;
18661;SDS011;61528;49.456;11.098;2022-11-15T10:30:12;2.77;;;2.27;;
18661;SDS011;61528;49.456;11.098;2022-11-15T10:32:38;2.47;;;2.23;;
18661;SDS011;61528;49.456;11.098;2022-11-15T10:35:20;2.97;;;2.47;;
18661;SDS011;61528;49.456;11.098;2022-11-15T10:37:46;3.60;;;2.40;;
18661;SDS011;61528;49.456;11.098;2022-11-15T10:40:20;4.03;;;2.33;;
18661;SDS011;61528;49.456;11.098;2022-11-15T10:42:47;2.63;;;2.20;;
18661;SDS011;61528;49.456;11.098;2022-11-15T10:45:27;3.13;;;2.30;;
18661;SDS011;61528;49.456;11.098;2022-11-15T10:47:57;4.57;;;2.10;;
18661;SDS011;61528;49.456;11.098;2022-11-15T10:50:43;2.20;;;2.00;;
18661;SDS011;61528;49.456;11.098;2022-11-15T10:53:23;2.47;;;2.23;;
18661;SDS011;61528;49.456;11.098;2022-11-15T10:55:55;2.40;;;2.20;;
18661;SDS011;61528;49.456;11.098;2022-11-15T10:58:32;2.77;;;2.20;;
18661;SDS011;61528;49.456;11.098;2022-11-15T11:03:40;3.40;;;2.00;;
18661;SDS011;61528;49.456;11.098;2022-11-15T11:06:14;3.57;;;2.20;;
18661;SDS011;61528;49.456;11.098;2022-11-15T11:09:02;2.30;;;2.03;;
18661;SDS011;61528;49.456;11.098;2022-11-15T11:14:17;2.30;;;1.90;;
18661;SDS011;61528;49.456;11.098;2022-11-15T11:16:48;2.77;;;1.87;;
18661;SDS011;61528;49.456;11.098;2022-11-15T11:27:13;3.70;;;1.77;;
18661;SDS011;61528;49.456;11.098;2022-11-15T11:29:50;2.23;;;1.90;;
18661;SDS011;61528;49.456;11.098;2022-11-15T11:42:29;1.97;;;1.60;;
18661;SDS011;61528;49.456;11.098;2022-11-15T11:45:05;2.50;;;1.60;;
18661;SDS011;61528;49.456;11.098;2022-11-15T11:47:50;2.57;;;1.60;;
18661;SDS011;61528;49.456;11.098;2022-11-15T11:50:18;2.40;;;1.73;;
18661;SDS011;61528;49.456;11.098;2022-11-15T11:52:52;2.97;;;1.60;;
18661;SDS011;61528;49.456;11.098;2022-11-15T11:56:22;1.83;;;1.70;;
18661;SDS011;61528;49.456;11.098;2022-11-15T12:01:17;5.07;;;1.97;;
18661;SDS011;61528;49.456;11.098;2022-11-15T12:03:44;2.47;;;1.80;;
18661;SDS011;61528;49.456;11.098;2022-11-15T12:08:52;3.07;;;1.93;;
18661;SDS011;61528;49.456;11.098;2022-11-15T12:14:05;2.57;;;1.70;;
18661;SDS011;61528;49.456;11.098;2022-11-15T12:16:37;2.23;;;1.70;;
18661;SDS011;61528;49.456;11.098;2022-11-15T12:19:04;1.83;;;1.50;;
18661;SDS011;61528;49.456;11.098;2022-11-15T12:21:36;3.67;;;1.90;;
18661;SDS011;61528;49.456;11.098;2022-11-15T12:25:02;3.37;;;1.83;;
18661;SDS011;61528;49.456;11.098;2022-11-15T12:27:13;1.60;;;1.40;;
18661;SDS011;61528;49.456;11.098;2022-11-15T12:29:59;3.43;;;1.77;;
18661;SDS011;61528;49.456;11.098;2022-11-15T12:32:31;2.03;;;1.83;;
18661;SDS011;61528;49.456;11.098;2022-11-15T12:34:58;3.63;;;2.07;;
18661;SDS011;61528;49.456;11.098;2022-11-15T12:45:26;2.40;;;1.70;;
18661;SDS011;61528;49.456;11.098;2022-11-15T12:47:52;2.67;;;1.50;;
18661;SDS011;61528;49.456;11.098;2022-11-15T12:53:36;2.20;;;2.00;;
18661;SDS011;61528;49.456;11.098;2022-11-15T12:58:41;2.97;;;1.70;;
18661;SDS011;61528;49.456;11.098;2022-11-15T13:01:08;2.47;;;1.90;;
18661;SDS011;61528;49.456;11.098;2022-11-15T13:03:35;2.23;;;1.47;;
18661;SDS011;61528;49.456;11.098;2022-11-15T13:06:03;2.10;;;1.57;;
18661;SDS011;61528;49.456;11.098;2022-11-15T13:09:02;3.93;;;1.60;;
18661;SDS011;61528;49.456;11.098;2022-11-15T13:14:52;4.43;;;2.30;;
18661;SDS011;61528;49.456;11.098;2022-11-15T13:16:59;2.57;;;2.00;;
18661;SDS011;61528;49.456;11.098;2022-11-15T13:19:25;2.90;;;1.97;;
18661;SDS011;61528;49.456;11.098;2022-11-15T13:21:52;2.93;;;1.90;;
18661;SDS011;61528;49.456;11.098;2022-11-15T13:24:37;3.07;;;2.20;;
18661;SDS011;61528;49.456;11.098;2022-11-15T13:27:17;2.63;;;1.90;;
18661;SDS011;61528;49.456;11.098;2022-11-15T13:29:44;3.57;;;1.93;;
18661;SDS011;61528;49.456;11.098;2022-11-15T13:32:12;3.03;;;2.00;;
18661;SDS011;61528;49.456;11.098;2022-11-15T13:34:39;3.97;;;2.13;;
18661;SDS011;61528;49.456;11.098;2022-11-15T13:37:32;4.10;;;1.80;;
18661;SDS011;61528;49.456;11.098;2022-11-15T13:42:57;4.73;;;2.07;;
18661;SDS011;61528;49.456;11.098;2022-11-15T13:45:24;2.07;;;1.80;;
18661;SDS011;61528;49.456;11.098;2022-11-15T13:47:52;3.00;;;1.90;;
18661;SDS011;61528;49.456;11.098;2022-11-15T13:50:20;2.53;;;1.80;;
18661;SDS011;61528;49.456;11.098;2022-11-15T13:52:46;3.80;;;2.00;;
18661;SDS011;61528;49.456;11.098;2022-11-15T13:55:17;3.47;;;2.00;;
18661;SDS011;61528;49.456;11.098;2022-11-15T13:57:54;2.30;;;1.70;;
18661;SDS011;61528;49.456;11.098;2022-11-15T14:03:10;4.23;;;2.20;;
18661;SDS011;61528;49.456;11.098;2022-11-15T14:05:39;6.63;;;2.80;;
18661;SDS011;61528;49.456;11.098;2022-11-15T14:08:21;3.20;;;1.97;;
18661;SDS011;61528;49.456;11.098;2022-11-15T14:10:48;4.07;;;2.43;;
18661;SDS011;61528;49.456;11.098;2022-11-15T14:13:31;4.07;;;2.30;;
18661;SDS011;61528;49.456;11.098;2022-11-15T14:16:17;3.20;;;2.00;;
18661;SDS011;61528;49.456;11.098;2022-11-15T14:18:45;3.63;;;2.23;;
18661;SDS011;61528;49.456;11.098;2022-11-15T14:21:12;3.07;;;2.07;;
18661;SDS011;61528;49.456;11.098;2022-11-15T14:23:38;5.07;;;2.57;;
18661;SDS011;61528;49.456;11.098;2022-11-15T14:26:04;6.43;;;2.80;;
18661;SDS011;61528;49.456;11.098;2022-11-15T14:28:32;4.40;;;2.40;;
18661;SDS011;61528;49.456;11.098;2022-11-15T14:31:01;3.73;;;2.93;;
18661;SDS011;61528;49.456;11.098;2022-11-15T14:33:34;4.53;;;2.60;;
18661;SDS011;61528;49.456;11.098;2022-11-15T14:36:15;4.23;;;2.73;;
18661;SDS011;61528;49.456;11.098;2022-11-15T14:38:41;3.73;;;3.03;;
18661;SDS011;61528;49.456;11.098;2022-11-15T14:41:24;3.60;;;3.10;;
18661;SDS011;61528;49.456;11.098;2022-11-15T14:43:51;5.80;;;3.23;;
18661;SDS011;61528;49.456;11.098;2022-11-15T14:46:18;3.47;;;2.97;;
18661;SDS011;61528;49.456;11.098;2022-11-15T14:48:44;4.33;;;3.20;;
18661;SDS011;61528;49.456;11.098;2022-11-15T14:51:14;4.67;;;3.40;;
18661;SDS011;61528;49.456;11.098;2022-11-15T14:53:42;4.27;;;3.20;;
18661;SDS011;61528;49.456;11.098;2022-11-15T14:56:08;4.10;;;3.07;;
18661;SDS011;61528;49.456;11.098;2022-11-15T14:58:35;4.90;;;3.50;;
18661;SDS011;61528;49.456;11.098;2022-11-15T15:01:02;5.97;;;3.47;;
18661;SDS011;61528;49.456;11.098;2022-11-15T15:03:29;4.00;;;3.30;;
18661;SDS011;61528;49.456;11.098;2022-11-15T15:05:55;5.43;;;3.30;;
18661;SDS011;61528;49.456;11.098;2022-11-15T15:08:21;4.27;;;2.93;;
18661;SDS011;61528;49.456;11.098;2022-11-15T15:10:48;8.10;;;3.40;;
18661;SDS011;61528;49.456;11.098;2022-11-15T15:13:16;6.00;;;3.17;;
18661;SDS011;61528;49.456;11.098;2022-11-15T15:15:42;4.70;;;3.20;;
18661;SDS011;61528;49.456;11.098;2022-11-15T15:18:08;4.40;;;3.23;;
18661;SDS011;61528;49.456;11.098;2022-11-15T15:20:37;3.20;;;2.90;;
18661;SDS011;61528;49.456;11.098;2022-11-15T15:23:05;5.17;;;3.20;;
18661;SDS011;61528;49.456;11.098;2022-11-15T15:25:32;5.97;;;3.27;;
18661;SDS011;61528;49.456;11.098;2022-11-15T15:27:59;6.53;;;3.27;;
18661;SDS011;61528;49.456;11.098;2022-11-15T15:30:26;3.80;;;3.30;;
18661;SDS011;61528;49.456;11.098;2022-11-15T15:32:54;3.70;;;3.10;;
18661;SDS011;61528;49.456;11.098;2022-11-15T15:35:21;4.60;;;3.20;;
18661;SDS011;61528;49.456;11.098;2022-11-15T15:37:48;4.73;;;3.10;;
18661;SDS011;61528;49.456;11.098;2022-11-15T15:40:18;7.87;;;3.30;;
18661;SDS011;61528;49.456;11.098;2022-11-15T15:42:45;5.80;;;3.40;;
18661;SDS011;61528;49.456;11.098;2022-11-15T15:45:12;4.53;;;3.60;;
18661;SDS011;61528;49.456;11.098;2022-11-15T15:47:38;4.07;;;3.40;;
18661;SDS011;61528;49.456;11.098;2022-11-15T15:50:16;6.80;;;3.23;;
18661;SDS011;61528;49.456;11.098;2022-11-15T15:52:43;7.57;;;3.60;;
18661;SDS011;61528;49.456;11.098;2022-11-15T15:55:10;6.63;;;3.73;;
18661;SDS011;61528;49.456;11.098;2022-11-15T15:57:36;9.03;;;4.40;;
18661;SDS011;61528;49.456;11.098;2022-11-15T16:00:04;5.93;;;3.80;;
18661;SDS011;61528;49.456;11.098;2022-11-15T16:02:31;5.97;;;3.73;;
18661;SDS011;61528;49.456;11.098;2022-11-15T16:04:57;7.63;;;3.50;;
18661;SDS011;61528;49.456;11.098;2022-11-15T16:07:24;5.80;;;4.23;;
18661;SDS011;61528;49.456;11.098;2022-11-15T16:09:53;5.50;;;3.93;;
18661;SDS011;61528;49.456;11.098;2022-11-15T16:12:32;7.27;;;3.80;;
18661;SDS011;61528;49.456;11.098;2022-11-15T16:14:59;7.57;;;4.10;;
18661;SDS011;61528;49.456;11.098;2022-11-15T16:17:26;5.73;;;4.10;;
18661;SDS011;61528;49.456;11.098;2022-11-15T16:19:54;7.87;;;4.07;;
18661;SDS011;61528;49.456;11.098;2022-11-15T16:22:20;6.43;;;4.10;;
18661;SDS011;61528;49.456;11.098;2022-11-15T16:24:46;7.77;;;3.90;;
18661;SDS011;61528;49.456;11.098;2022-11-15T16:27:17;11.40;;;4.30;;
18661;SDS011;61528;49.456;11.098;2022-11-15T16:29:43;9.40;;;4.50;;
18661;SDS011;61528;49.456;11.098;2022-11-15T16:32:10;12.30;;;4.47;;
18661;SDS011;61528;49.456;11.098;2022-11-15T16:34:36;7.20;;;4.50;;